Time;durP1;ratioP1;P1;durP2;ratioP2;P2;SDS_P1;SDS_P2;PMS_P1;PMS_P2;Temp;Humidity;BMP_temperature;BMP_pressure;BME280_temperature;BME280_humidity;BME280_pressure;Samples;Min_cycle;Max_cycle;Signal;HPM_P1;HPM_P2
2021/05/13 00:01:17;;;;;;;;;;;;;;;;;;5112914;28;20306;-66
2021/05/13 00:03:43;;;;;;;;;;;;;;;;;;5113309;28;19912;-67
2021/05/13 00:06:08;;;;;;;;;;;;;;;;;;5113005;28;20407;-65
2021/05/13 00:08:34;;;;;;;;;;;;;;;;;;5113121;28;19951;-65
2021/05/13 00:11:05;;;;;;;;;;;;;;;;;;5113341;28;19996;-67
2021/05/13 00:13:31;;;;;;;;;;;;;;;;;;5113275;28;19908;-66
2021/05/13 00:15:57;;;;;;;;;;;;;;;;;;5113411;28;19919;-67
2021/05/13 00:18:23;;;;;;;;;;;;;;;;;;5108595;28;19916;-67
2021/05/13 00:20:49;;;;;;;;;;;;;;;;;;5104009;28;19934;-66
2021/05/13 00:23:15;;;;;;;;;;;;;;;;;;5112856;28;20361;-69
2021/05/13 00:25:42;;;;;;;;;;;;;;;;;;5102782;28;19912;-66
2021/05/13 00:28:08;;;;;;;;;;;;;;;;;;5113036;28;19908;-67
2021/05/13 00:30:34;;;;;;;;;;;;;;;;;;5112539;28;20002;-67
2021/05/13 00:33:00;;;;;;;;;;;;;;;;;;5112759;28;20007;-67
2021/05/13 00:35:26;;;;;;;;;;;;;;;;;;5099751;28;19936;-67
2021/05/13 00:37:51;;;;;;;;;;;;;;;;;;5099829;28;19908;-67
2021/05/13 00:40:18;;;;;;;;;;;410.30;2099.20;;;;;;5112745;28;19953;-66
2021/05/13 00:42:44;;;;;;;;;;;410.10;2124.80;;;;;;5116753;28;20003;-67
2021/05/13 00:45:10;;;;;;;;;;;;;;;;;;5116870;28;19948;-66
2021/05/13 00:47:37;;;;;;;;;;;;;;;;;;5117032;28;19919;-67
2021/05/13 00:50:02;;;;;;;;;;;;;;;;;;5117299;28;20277;-66
2021/05/13 00:52:29;;;;;;;;;;;;;;;;;;5116778;28;19915;-67
2021/05/13 00:54:54;;;;;;;;;;;;;;;;;;5117131;28;19909;-67
2021/05/13 00:57:21;;;;;;;;;;;410.20;2150.40;;;;;;5116798;28;19919;-66
2021/05/13 00:59:50;;;;;;;;;;;410.10;2150.40;;;;;;5116482;28;19954;-66
2021/05/13 01:02:15;;;;;;;;;;;410.30;2124.80;;;;;;5116659;28;19919;-66
2021/05/13 01:04:41;;;;;;;;;;;410.20;2150.40;;;;;;5116677;28;19912;-66
2021/05/13 01:07:07;;;;;;;;;;;410.30;2124.80;;;;;;5116990;28;20387;-66
2021/05/13 01:09:33;;;;;;;;;;;410.10;2150.40;;;;;;5116404;28;20420;-66
2021/05/13 01:12:05;;;;;;;;;;;410.00;2176.00;;;;;;5116541;28;20392;-66
2021/05/13 01:17:37;;;;;;;;;;;;;;;;;;5116746;28;19958;-66
2021/05/13 01:19:50;;;;;;;;;;;;;;;;;;5115840;28;19908;-66
2021/05/13 01:22:16;;;;;;;;;;;;;;;;;;5116400;28;19908;-65
2021/05/13 01:24:41;;;;;;;;;;;;;;;;;;5106150;28;19912;-67
2021/05/13 01:27:07;;;;;;;;;;;;;;;;;;5116192;28;19908;-66
2021/05/13 01:29:33;;;;;;;;;;;;;;;;;;5116226;28;20361;-67
2021/05/13 01:31:59;;;;;;;;;;;;;;;;;;5115891;28;20377;-67
2021/05/13 01:34:25;;;;;;;;;;;;;;;;;;5107733;28;20011;-67
2021/05/13 01:36:51;;;;;;;;;;;;;;;;;;5099932;28;19939;-66
2021/05/13 01:39:17;;;;;;;;;;;;;;;;;;5114637;28;19958;-67
2021/05/13 01:41:43;;;;;;;;;;;;;;;;;;5116227;28;20377;-66
2021/05/13 01:44:09;;;;;;;;;;;;;;;;;;5116156;28;20377;-66
2021/05/13 01:46:35;;;;;;;;;;;;;;;;;;5116054;28;19920;-67
2021/05/13 01:49:01;;;;;;;;;;;;;;;;;;5116106;28;20384;-66
2021/05/13 01:51:27;;;;;;;;;;;;;;;;;;5115571;28;20404;-65
2021/05/13 01:53:52;;;;;;;;;;;;;;;;;;5115929;28;19926;-66
2021/05/13 01:56:18;;;;;;;;;;;;;;;;;;5115667;28;19908;-66
2021/05/13 01:58:44;;;;;;;;;;;;;;;;;;5115569;28;19919;-66
2021/05/13 02:01:12;;;;;;;;;;;;;;;;;;5115233;28;19915;-67
2021/05/13 02:03:38;;;;;;;;;;;;;;;;;;5115586;28;20417;-67
2021/05/13 02:06:04;;;;;;;;;;;;;;;;;;5115164;28;19990;-67
2021/05/13 02:08:30;;;;;;;;;;;;;;;;;;5115433;28;19957;-66
2021/05/13 02:10:56;;;;;;;;;;;;;;;;;;5115248;28;19955;-66
2021/05/13 02:13:22;;;;;;;;;;;;;;;;;;5115165;28;19943;-66
2021/05/13 02:15:48;;;;;;;;;;;;;;;;;;5115312;28;20385;-67
2021/05/13 02:18:14;;;;;;;;;;;;;;;;;;5115048;28;20307;-66
2021/05/13 02:20:40;;;;;;;;;;;;;;;;;;5115237;28;20278;-67
2021/05/13 02:23:05;;;;;;;;;;;;;;;;;;5114848;28;19931;-66
2021/05/13 02:25:32;;;;;;;;;;;;;;;;;;5097193;28;19908;-67
2021/05/13 02:27:58;;;;;;;;;;;;;;;;;;5109050;28;20328;-66
2021/05/13 02:30:24;;;;;;;;;;;;;;;;;;5114128;28;20391;-65
2021/05/13 02:32:50;;;;;;;;;;;;;;;;;;5114641;28;19995;-67
2021/05/13 02:35:16;;;;;;;;;;;;;;;;;;5103293;28;20003;-66
2021/05/13 02:37:42;;;;;;;;;;;;;;;;;;5100337;28;19915;-67
2021/05/13 02:40:08;;;;;;;;;;;;;;;;;;5114515;28;19907;-66
2021/05/13 02:42:34;;;;;;;;;;;;;;;;;;5114467;28;19908;-65
2021/05/13 02:45:00;;;;;;;;;;;;;;;;;;5114793;28;20010;-66
2021/05/13 02:47:25;;;;;;;;;;;;;;;;;;5100288;28;19935;-65
2021/05/13 02:49:51;;;;;;;;;;;;;;;;;;5114400;28;19922;-65
2021/05/13 02:52:17;;;;;;;;;;;;;;;;;;5114285;28;19908;-65
2021/05/13 02:54:43;;;;;;;;;;;;;;;;;;5114103;28;19911;-64
2021/05/13 02:57:09;;;;;;;;;;;;;;;;;;5114077;28;19908;-66
2021/05/13 02:59:46;;;;;;;;;;;;;;;;;;5114365;28;20315;-66
2021/05/13 03:02:12;;;;;;;;;;;;;;;;;;5114419;28;19907;-67
2021/05/13 03:04:38;;;;;;;;;;;;;;;;;;5113284;28;19915;-67
2021/05/13 03:07:04;;;;;;;;;;;;;;;;;;5114161;28;19914;-67
2021/05/13 03:09:31;;;;;;;;;;;;;;;;;;5099582;28;19918;-67
2021/05/13 03:11:57;;;;;;;;;;;;;;;;;;5095746;28;19916;-66
2021/05/13 03:14:23;;;;;;;;;;;;;;;;;;5113962;28;19987;-66
2021/05/13 03:16:49;;;;;;;;;;;;;;;;;;5113926;28;19911;-66
2021/05/13 03:19:21;;;;;;;;;;;;;;;;;;5114222;28;20266;-66
2021/05/13 03:21:47;;;;;;;;;;;;;;;;;;5095503;28;19926;-66
2021/05/13 03:24:23;;;;;;;;;;;;;;;;;;5107057;28;19912;-66
2021/05/13 03:29:15;;;;;;;;;;;;;;;;;;5113819;28;19908;-66
2021/05/13 03:31:40;;;;;;;;;;;;;;;;;;5113203;28;19908;-66
2021/05/13 03:34:06;;;;;;;;;;;;;;;;;;5107879;28;19908;-67
2021/05/13 03:36:32;;;;;;;;;;;;;;;;;;5097456;28;19954;-67
2021/05/13 03:38:58;;;;;;;;;;;;;;;;;;5109778;28;19912;-66
2021/05/13 03:41:24;;;;;;;;;;;;;;;;;;5113640;28;20354;-66
2021/05/13 03:43:50;;;;;;;;;;;;;;;;;;5114027;28;19907;-67
2021/05/13 03:46:16;;;;;;;;;;;;;;;;;;5113803;28;19919;-67
2021/05/13 03:48:42;;;;;;;;;;;;;;;;;;5113641;28;19912;-67
2021/05/13 03:51:08;;;;;;;;;;;;;;;;;;5095744;28;20274;-67
2021/05/13 03:53:35;;;;;;;;;;;;;;;;;;5112889;28;21430;-67
2021/05/13 03:56:01;;;;;;;;;;;;;;;;;;5113642;28;20266;-66
2021/05/13 03:58:32;;;;;;;;;;;;;;;;;;5113782;28;20320;-66
2021/05/13 04:03:24;;;;;;;;;;;;;;;;;;5113585;28;19907;-65
2021/05/13 04:05:49;;;;;;;;;;;;;;;;;;5113525;28;20350;-65
2021/05/13 04:08:15;;;;;;;;;;;;;;;;;;5113243;28;20370;-67
2021/05/13 04:10:41;;;;;;;;;;;;;;;;;;5113275;28;19923;-65
2021/05/13 04:13:09;;;;;;;;;;;;;;;;;;5113290;28;19908;-66
2021/05/13 04:15:35;;;;;;;;;;;;;;;;;;5113284;28;19912;-66
2021/05/13 04:18:01;;;;;;;;;;;;;;;;;;5112791;28;20370;-66
2021/05/13 04:20:27;;;;;;;;;;;;;;;;;;5113033;28;19912;-66
2021/05/13 04:22:53;;;;;;;;;;;;;;;;;;5112978;28;20353;-66
2021/05/13 04:25:19;;;;;;;;;;;;;;;;;;5103281;28;19951;-67
2021/05/13 04:27:46;;;;;;;;;;;;;;;;;;5113119;28;19954;-67
2021/05/13 04:30:12;;;;;;;;;;;;;;;;;;5112427;28;19911;-66
2021/05/13 04:32:38;;;;;;;;;;;;;;;;;;5112661;28;19942;-66
2021/05/13 04:35:04;;;;;;;;;;;;;;;;;;5101075;28;20358;-67
2021/05/13 04:37:30;;;;;;;;;;;;;;;;;;5098226;28;19955;-66
2021/05/13 04:39:56;;;;;;;;;;;;;;;;;;5112722;28;19915;-66
2021/05/13 04:42:22;;;;;;;;;;;;;;;;;;5112888;28;19908;-66
2021/05/13 04:44:48;;;;;;;;;;;;;;;;;;5112707;28;20259;-67
2021/05/13 04:47:34;;;;;;;;;;;;;;;;;;5112387;28;20380;-67
2021/05/13 04:50:00;;;;;;;;;;;;;;;;;;5113222;28;19916;-67
2021/05/13 04:52:26;;;;;;;;;;;;;;;;;;5112515;28;19908;-67
2021/05/13 04:54:52;;;;;;;;;;;;;;;;;;5112575;28;19931;-66
2021/05/13 04:57:18;;;;;;;;;;;;;;;;;;5112591;28;19908;-67
2021/05/13 04:59:44;;;;;;;;;;;;;;;;;;5112391;28;19912;-67
2021/05/13 05:02:10;;;;;;;;;;;;;;;;;;5112651;28;19912;-66
2021/05/13 05:04:36;;;;;;;;;;;;;;;;;;5113068;28;19908;-66
2021/05/13 05:07:02;;;;;;;;;;;;;;;;;;5112666;28;20002;-67
2021/05/13 05:09:28;;;;;;;;;;;;;;;;;;5112264;28;19916;-66
2021/05/13 05:11:53;;;;;;;;;;;;;;;;;;5106969;28;19970;-66
2021/05/13 05:14:19;;;;;;;;;;;;;;;;;;5091848;28;19915;-66
2021/05/13 05:16:45;;;;;;;;;;;;;;;;;;5084903;28;19935;-67
2021/05/13 05:19:11;;;;;;;;;;;;;;;;;;5088040;28;19912;-67
2021/05/13 05:21:37;;;;;;;;;;;;;;;;;;5084567;28;20007;-66
2021/05/13 05:24:03;;;;;;;;;;;;;;;;;;5077473;28;20366;-67
2021/05/13 05:26:29;;;;;;;;;;;;;;;;;;5086826;28;20322;-66
2021/05/13 05:28:55;;;;;;;;;;;;;;;;;;5090027;28;20385;-67
2021/05/13 05:31:21;;;;;;;;;;;;;;;;;;5092713;28;19958;-67
2021/05/13 05:33:47;;;;;;;;;;;;;;;;;;5088862;28;20378;-68
2021/05/13 05:36:13;;;;;;;;;;;;;;;;;;5091942;28;20365;-66
2021/05/13 05:38:39;;;;;;;;;;;;;;;;;;5109762;28;19908;-66
2021/05/13 05:41:04;;;;;;;;;;;;;;;;;;5115824;28;19915;-67
2021/05/13 05:43:30;;;;;;;;;;;;;;;;;;5115653;28;20006;-67
2021/05/13 05:45:56;;;;;;;;;;;;;;;;;;5111592;28;20358;-66
2021/05/13 05:48:22;;;;;;;;;;;;;;;;;;5105116;28;19916;-67
2021/05/13 05:50:48;;;;;;;;;;;;;;;;;;5115341;28;19922;-66
2021/05/13 05:53:14;;;;;;;;;;;;;;;;;;5115636;28;19911;-67
2021/05/13 05:55:40;;;;;;;;;;;;;;;;;;5115329;28;19977;-66
2021/05/13 05:58:06;;;;;;;;;;;;;;;;;;5115447;28;19954;-67
2021/05/13 06:00:32;;;;;;;;;;;;;;;;;;5115636;28;20351;-66
2021/05/13 06:02:58;;;;;;;;;;;486.80;1740.80;;;;;;5115514;28;19912;-67
2021/05/13 06:05:24;;;;;;;;;;;486.90;1740.80;;;;;;5115344;28;19922;-65
2021/05/13 06:07:50;;;;;;;;;;;486.80;1689.60;;;;;;5115124;28;20002;-66
2021/05/13 06:10:16;;;;;;;;;;;486.90;1715.20;;;;;;5115142;28;20003;-67
2021/05/13 06:12:42;;;;;;;;;;;486.80;1715.20;;;;;;5115251;28;19908;-66
2021/05/13 06:15:09;;;;;;;;;;;486.70;1740.80;;;;;;5114893;28;19908;-67
2021/05/13 06:17:35;;;;;;;;;;;;;;;;;;5114982;28;19938;-67
2021/05/13 06:20:01;;;;;;;;;;;;;;;;;;5096621;28;20361;-66
2021/05/13 06:22:27;;;;;;;;;;;;;;;;;;5114973;28;19985;-66
2021/05/13 06:24:53;;;;;;;;;;;;;;;;;;5104625;28;19920;-66
2021/05/13 06:27:19;;;;;;;;;;;;;;;;;;5114925;28;20016;-66
2021/05/13 06:29:46;;;;;;;;;;;;;;;;;;5114532;28;19912;-66
2021/05/13 06:32:12;;;;;;;;;;;512.70;1587.20;;;;;;5096052;28;19968;-67
2021/05/13 06:34:37;;;;;;;;;;;;;;;;;;5104532;28;19974;-66
2021/05/13 06:37:03;;;;;;;;;;;;;;;;;;5098625;28;19912;-65
2021/05/13 06:39:32;;;;;;;;;;;;;;;;;;5106501;28;19908;-65
2021/05/13 06:41:58;;;;;;;;;;;;;;;;;;5107620;28;19907;-65
2021/05/13 06:44:24;;;;;;;;;;;;;;;;;;5114433;28;19994;-65
2021/05/13 06:46:50;;;;;;;;;;;;;;;;;;5114611;28;19962;-65
2021/05/13 06:49:16;;;;;;;;;;;;;;;;;;5114337;28;19974;-65
2021/05/13 06:51:42;;;;;;;;;;;;;;;;;;5114174;28;20334;-65
2021/05/13 06:54:08;;;;;;;;;;;;;;;;;;5095762;28;19915;-66
2021/05/13 06:56:34;;;;;;;;;;;;;;;;;;5115031;28;19912;-66
2021/05/13 06:59:00;;;;;;;;;;;;;;;;;;5114691;28;19931;-65
2021/05/13 07:01:26;;;;;;;;;;;;;;;;;;5114165;28;19907;-66
2021/05/13 07:03:52;;;;;;;;;;;;;;;;;;5114381;28;19918;-66
2021/05/13 07:06:18;;;;;;;;;;;;;;;;;;5114845;28;19908;-65
2021/05/13 07:08:44;;;;;;;;;;;;;;;;;;5114393;28;19951;-64
2021/05/13 07:11:10;;;;;;;;;;;538.30;1459.20;;;;;;5114029;28;20025;-65
2021/05/13 07:13:36;;;;;;;;;;;538.30;1433.60;;;;;;5095614;28;20083;-66
2021/05/13 07:16:02;;;;;;;;;;;538.40;1459.20;;;;;;5114246;28;20007;-65
2021/05/13 07:18:28;;;;;;;;;;;538.50;1459.20;;;;;;5113726;28;20002;-66
2021/05/13 07:20:54;;;;;;;;;;;538.50;1433.60;;;;;;5113924;28;19930;-66
2021/05/13 07:23:19;;;;;;;;;;;563.20;1459.20;;;;;;5113577;28;19908;-64
2021/05/13 07:25:46;;;;;;;;;;;563.20;1459.20;;;;;;5085533;28;19995;-63
2021/05/13 07:28:12;;;;;;;;;;;538.50;1459.20;;;;;;5113603;28;19908;-66
2021/05/13 07:30:38;;;;;;;;;;;538.50;1459.20;;;;;;5113075;28;19929;-66
2021/05/13 07:33:04;;;;;;;;;;;538.50;1459.20;;;;;;5113506;28;19998;-66
2021/05/13 07:35:30;;;;;;;;;;;538.40;1484.80;;;;;;5099649;28;19908;-66
2021/05/13 07:37:56;;;;;;;;;;;538.30;1484.80;;;;;;5101426;28;19915;-66
2021/05/13 07:40:22;;;;;;;;;;;538.20;1561.60;;;;;;5113544;28;19908;-66
2021/05/13 07:42:48;;;;;;;;;;;538.10;1587.20;;;;;;5113465;28;20254;-68
2021/05/13 07:45:14;;;;;;;;;;;538.20;1587.20;;;;;;5113239;28;20287;-66
2021/05/13 07:47:40;;;;;;;;;;;538.30;1587.20;;;;;;5113098;28;19930;-66
2021/05/13 07:50:10;;;;;;;;;;;538.40;1587.20;;;;;;5112683;28;19916;-66
2021/05/13 07:52:36;;;;;;;;;;;538.50;1561.60;;;;;;5113112;28;19908;-66
2021/05/13 07:55:03;;;;;;;;;;;538.50;1817.60;;;;;;5113214;28;19930;-67
2021/05/13 07:57:28;;;;;;;;;;;563.20;2278.40;;;;;;5112901;28;19908;-68
2021/05/13 07:59:54;;;;;;;;;;;;;;;;;;5094597;28;19908;-68
2021/05/13 08:02:20;;;;;;;;;;;563.80;1484.80;;;;;;5113416;28;19957;-65
2021/05/13 08:04:46;;;;;;;;;;;;;;;;;;5113301;28;19911;-66
2021/05/13 08:07:11;;;;;;;;;;;;;;;;;;5112873;28;20351;-66
2021/05/13 08:09:37;;;;;;;;;;;;;;;;;;5112962;28;19919;-65
2021/05/13 08:12:03;;;;;;;;;;;;;;;;;;5113586;28;20010;-68
2021/05/13 08:14:29;;;;;;;;;;;;;;;;;;5113066;28;19950;-70
2021/05/13 08:16:55;;;;;;;;;;;;;;;;;;5113319;28;19919;-69
2021/05/13 08:19:21;;;;;;;;;;;;;;;;;;5112922;28;20294;-68
2021/05/13 08:21:47;;;;;;;;;;;;;;;;;;5113044;28;20400;-66
2021/05/13 08:24:13;;;;;;;;;;;;;;;;;;5106532;28;19912;-67
2021/05/13 08:26:39;;;;;;;;;;;;;;;;;;5109674;28;19923;-67
2021/05/13 08:29:05;;;;;;;;;;;;;;;;;;5113223;28;20002;-67
2021/05/13 08:31:31;;;;;;;;;;;;;;;;;;5112735;28;20081;-66
2021/05/13 08:33:57;;;;;;;;;;;;;;;;;;5108474;28;19908;-67
2021/05/13 08:36:23;;;;;;;;;;;;;;;;;;5096553;28;20302;-67
2021/05/13 08:38:48;;;;;;;;;;;;;;;;;;5106776;28;20362;-67
2021/05/13 08:41:14;;;;;;;;;;;;;;;;;;5099737;28;19908;-66
2021/05/13 08:43:43;;;;;;;;;;;;;;;;;;5112635;28;20006;-66
2021/05/13 08:46:08;;;;;;;;;;;;;;;;;;5112644;28;19999;-66
2021/05/13 08:48:34;;;;;;;;;;;;;;;;;;5112841;28;19947;-66
2021/05/13 08:51:00;;;;;;;;;;;;;;;;;;5112659;28;20374;-66
2021/05/13 08:53:26;;;;;;;;;;;;;;;;;;5112763;28;19908;-66
2021/05/13 08:55:52;;;;;;;;;;;;;;;;;;5112657;28;19998;-66
2021/05/13 08:58:18;;;;;;;;;;;;;;;;;;5112817;28;19990;-67
2021/05/13 09:00:44;;;;;;;;;;;;;;;;;;5094131;28;19912;-67
2021/05/13 09:03:10;;;;;;;;;;;;;;;;;;5101318;28;19923;-68
2021/05/13 09:05:36;;;;;;;;;;;;;;;;;;5116329;28;19907;-67
2021/05/13 09:08:02;;;;;;;;;;;;;;;;;;5116784;28;19908;-66
2021/05/13 09:10:28;;;;;;;;;;;;;;;;;;5116639;28;19939;-66
2021/05/13 09:12:54;;;;;;;;;;;;;;;;;;5116436;28;20390;-65
2021/05/13 09:15:23;;;;;;;;;;;614.60;1254.40;;;;;;5116812;28;19912;-67
2021/05/13 09:17:49;;;;;;;;;;;;;;;;;;5116628;28;19951;-64
2021/05/13 09:20:22;;;;;;;;;;;614.90;1280.00;;;;;;5110094;28;19958;-67
2021/05/13 09:22:48;;;;;;;;;;;614.80;1305.60;;;;;;5110160;28;19908;-67
2021/05/13 09:25:14;;;;;;;;;;;615.00;1305.60;;;;;;5106262;28;19918;-68
2021/05/13 09:27:42;;;;;;;;;;;615.00;1280.00;;;;;;5116151;28;20305;-66
2021/05/13 09:30:09;;;;;;;;;;;614.80;1280.00;;;;;;5115927;28;19911;-65
2021/05/13 09:32:35;;;;;;;;;;;;;;;;;;5116404;28;19907;-64
2021/05/13 09:35:24;;;;;;;;;;;614.40;1280.00;;;;;;5104233;28;19916;-65
2021/05/13 09:37:50;;;;;;;;;;;;;;;;;;5105317;28;19908;-66
2021/05/13 09:40:16;;;;;;;;;;;;;;;;;;5116519;28;19965;-64
2021/05/13 09:42:42;;;;;;;;;;;;;;;;;;5115894;28;19907;-64
2021/05/13 09:45:08;;;;;;;;;;;;;;;;;;5115919;28;20373;-66
2021/05/13 09:47:34;;;;;;;;;;;;;;;;;;5115782;28;20316;-65
2021/05/13 09:50:02;;;;;;;;;;;;;;;;;;5116098;28;19924;-64
2021/05/13 09:52:28;;;;;;;;;;;;;;;;;;5116240;28;19908;-64
2021/05/13 09:54:54;;;;;;;;;;;;;;;;;;5115762;28;19912;-64
2021/05/13 09:57:20;;;;;;;;;;;;;;;;;;5115741;28;19965;-64
2021/05/13 09:59:46;;;;;;;;;;;;;;;;;;5115253;28;20314;-64
2021/05/13 10:02:12;;;;;;;;;;;;;;;;;;5115797;28;19951;-65
2021/05/13 10:04:37;;;;;;;;;;;;;;;;;;5115333;28;19915;-64
2021/05/13 10:07:03;;;;;;;;;;;564.10;1689.60;;;;;;5115549;28;19912;-63
2021/05/13 10:09:31;;;;;;;;;;;564.10;1689.60;;;;;;5115273;28;20243;-66
2021/05/13 10:11:59;;;;;;;;;;;563.80;1689.60;;;;;;5115453;28;19915;-64
2021/05/13 10:14:25;;;;;;;;;;;563.70;1638.40;;;;;;5114944;28;19908;-66
2021/05/13 10:16:53;;;;;;;;;;;563.70;1664.00;;;;;;5115358;28;20393;-66
2021/05/13 10:19:25;;;;;;;;;;;563.50;1536.00;;;;;;5115345;28;19915;-64
2021/05/13 10:21:52;;;;;;;;;;;563.50;1587.20;;;;;;5115649;28;19908;-65
2021/05/13 10:24:18;;;;;;;;;;;538.50;1740.80;;;;;;5107836;28;20007;-64
2021/05/13 10:26:44;;;;;;;;;;;563.20;1792.00;;;;;;5112601;28;19947;-63
2021/05/13 10:29:19;;;;;;;;;;;563.20;1868.80;;;;;;5115290;28;20377;-64
2021/05/13 10:31:45;;;;;;;;;;;563.20;1894.40;;;;;;5114844;28;19924;-65
2021/05/13 10:34:11;;;;;;;;;;;563.20;1792.00;;;;;;5108585;28;19920;-64
2021/05/13 10:36:36;;;;;;;;;;;563.20;1817.60;;;;;;5098692;28;20326;-63
2021/05/13 10:39:09;;;;;;;;;;;563.50;1740.80;;;;;;5111409;28;19908;-66
2021/05/13 10:41:36;;;;;;;;;;;563.60;1792.00;;;;;;5114750;28;19961;-65
2021/05/13 10:44:02;;;;;;;;;;;;;;;;;;5114661;28;19908;-66
2021/05/13 10:46:28;;;;;;;;;;;;;;;;;;5106324;28;20010;-68
2021/05/13 10:48:54;;;;;;;;;;;;;;;;;;5108852;28;20011;-67
2021/05/13 10:51:19;;;;;;;;;;;;;;;;;;5114594;28;20091;-67
2021/05/13 10:53:45;;;;;;;;;;;614.60;1664.00;;;;;;5095848;28;20400;-67
2021/05/13 10:56:12;;;;;;;;;;;614.60;1587.20;;;;;;5114535;28;19908;-67
2021/05/13 10:59:00;;;;;;;;;;;614.70;1664.00;;;;;;5114870;28;20341;-67
2021/05/13 11:01:39;;;;;;;;;;;614.80;1561.60;;;;;;5114264;28;19908;-65
2021/05/13 11:04:19;;;;;;;;;;;614.80;1587.20;;;;;;5096186;28;19914;-66
2021/05/13 11:06:45;;;;;;;;;;;614.90;1510.40;;;;;;5088212;28;20365;-67
2021/05/13 11:09:11;;;;;;;;;;;615.00;1459.20;;;;;;5114307;28;19912;-69
2021/05/13 11:11:37;;;;;;;;;;;;;;;;;;5114025;28;20370;-69
2021/05/13 11:14:03;;;;;;;;;;;;;;;;;;5114180;28;20392;-69
2021/05/13 11:16:29;;;;;;;;;;;;;;;;;;5114458;28;19915;-69
2021/05/13 11:18:58;;;;;;;;;;;;;;;;;;5114043;28;19912;-69
2021/05/13 11:21:24;;;;;;;;;;;;;;;;;;5113621;28;19918;-66
2021/05/13 11:23:49;;;;;;;;;;;;;;;;;;5110834;28;19912;-65
2021/05/13 11:26:15;;;;;;;;;;;589.70;1152.00;;;;;;5106977;28;19931;-64
2021/05/13 11:28:51;;;;;;;;;;;589.70;1177.60;;;;;;5113786;28;20358;-67
2021/05/13 11:31:18;;;;;;;;;;;;;;;;;;5096326;28;20306;-66
2021/05/13 11:33:45;;;;;;;;;;;;;;;;;;5093595;28;19916;-66
2021/05/13 11:36:11;;;;;;;;;;;;;;;;;;5092142;28;19912;-65
2021/05/13 11:38:37;;;;;;;;;;;;;;;;;;5110404;28;19914;-66
2021/05/13 11:41:03;;;;;;;;;;;;;;;;;;5109058;28;20008;-68
2021/05/13 11:43:31;;;;;;;;;;;;;;;;;;5111827;28;20437;-68
2021/05/13 11:45:57;;;;;;;;;;;;;;;;;;5112030;28;19955;-67
2021/05/13 11:48:23;;;;;;;;;;;;;;;;;;5106892;28;20382;-67
2021/05/13 11:50:49;;;;;;;;;;;;;;;;;;5089070;28;19916;-67
2021/05/13 11:53:15;;;;;;;;;;;;;;;;;;5097066;28;19957;-66
2021/05/13 11:55:42;;;;;;;;;;;589.40;1305.60;;;;;;5111288;28;19938;-69
2021/05/13 11:58:08;;;;;;;;;;;589.60;1382.40;;;;;;5106742;28;19915;-67
2021/05/13 12:00:33;;;;;;;;;;;589.70;1280.00;;;;;;5100530;28;19959;-67
2021/05/13 12:03:12;;;;;;;;;;;614.50;1228.80;;;;;;5077900;28;19966;-67
2021/05/13 12:05:45;;;;;;;;;;;614.60;1254.40;;;;;;5073961;28;19913;-67
2021/05/13 12:08:13;;;;;;;;;;;615.10;1228.80;;;;;;5105004;28;19986;-69
2021/05/13 12:10:39;;;;;;;;;;;;;;;;;;5105375;28;20262;-68
2021/05/13 12:13:05;;;;;;;;;;;;;;;;;;5077202;28;19934;-69
2021/05/13 12:15:31;;;;;;;;;;;615.30;1152.00;;;;;;5101429;28;19955;-68
2021/05/13 12:17:56;;;;;;;;;;;615.20;1177.60;;;;;;5110378;28;19919;-67
2021/05/13 12:20:22;;;;;;;;;;;640.10;1203.20;;;;;;5092283;28;20050;-67
2021/05/13 12:22:48;;;;;;;;;;;;;;;;;;5102262;28;20323;-65
2021/05/13 12:25:14;;;;;;;;;;;;;;;;;;5100938;28;19923;-68
2021/05/13 12:27:40;;;;;;;;;;;640.40;1126.40;;;;;;5107749;28;19916;-61
2021/05/13 12:30:06;;;;;;;;;;;640.20;1126.40;;;;;;5105580;28;20007;-61
2021/05/13 12:32:32;;;;;;;;;;;640.10;1100.80;;;;;;5108641;28;20012;-62
2021/05/13 12:34:58;;;;;;;;;;;;;;;;;;5098404;28;19912;-65
2021/05/13 12:37:24;;;;;;;;;;;;;;;;;;5102910;28;20290;-64
2021/05/13 12:39:49;;;;;;;;;;;;;;;;;;5102611;28;20388;-62
2021/05/13 12:42:15;;;;;;;;;;;;;;;;;;5101404;28;19953;-63
2021/05/13 12:44:41;;;;;;;;;;;;;;;;;;5102542;28;19939;-65
2021/05/13 12:47:07;;;;;;;;;;;;;;;;;;5109273;28;19923;-62
2021/05/13 12:49:33;;;;;;;;;;;;;;;;;;5088180;28;19920;-63
2021/05/13 12:51:59;;;;;;;;;;;;;;;;;;5109370;28;19965;-67
2021/05/13 12:54:25;;;;;;;;;;;;;;;;;;5109028;28;19981;-61
2021/05/13 12:56:51;;;;;;;;;;;;;;;;;;5111587;28;19912;-65
2021/05/13 12:59:17;;;;;;;;;;;;;;;;;;5082715;28;19908;-65
2021/05/13 13:01:43;;;;;;;;;;;;;;;;;;5086088;28;20286;-63
2021/05/13 13:04:09;;;;;;;;;;;;;;;;;;5057636;28;19909;-60
2021/05/13 13:06:51;;;;;;;;;;;640.10;998.40;;;;;;5073991;28;19912;-59
2021/05/13 13:09:32;;;;;;;;;;;615.30;998.40;;;;;;5075872;28;19909;-59
2021/05/13 13:12:02;;;;;;;;;;;615.30;1024.00;;;;;;5084121;28;19917;-59
2021/05/13 13:14:39;;;;;;;;;;;;;;;;;;5075449;28;19909;-59
2021/05/13 13:17:23;;;;;;;;;;;640.10;998.40;;;;;;5073771;28;19916;-60
2021/05/13 13:19:58;;;;;;;;;;;615.10;1024.00;;;;;;5075667;28;19911;-59
2021/05/13 13:22:24;;;;;;;;;;;615.10;1024.00;;;;;;5074309;28;20354;-59
2021/05/13 13:25:01;;;;;;;;;;;615.20;1024.00;;;;;;5083208;28;19912;-59
2021/05/13 13:27:27;;;;;;;;;;;615.30;1024.00;;;;;;5073770;28;19935;-59
2021/05/13 13:29:52;;;;;;;;;;;640.00;998.40;;;;;;5076058;28;20411;-59
2021/05/13 13:32:18;;;;;;;;;;;615.30;998.40;;;;;;5095081;28;20396;-59
2021/05/13 13:34:43;;;;;;;;;;;614.90;1024.00;;;;;;5084565;28;19919;-59
2021/05/13 13:37:09;;;;;;;;;;;;;;;;;;5070638;28;19912;-59
2021/05/13 13:39:35;;;;;;;;;;;614.70;1049.60;;;;;;5112233;28;20258;-60
2021/05/13 13:42:00;;;;;;;;;;;614.60;1049.60;;;;;;5112421;28;20353;-59
2021/05/13 13:44:26;;;;;;;;;;;614.60;1049.60;;;;;;5106615;28;20243;-65
2021/05/13 13:46:52;;;;;;;;;;;614.60;1049.60;;;;;;5091803;28;19924;-60
2021/05/13 13:49:17;;;;;;;;;;;614.80;1049.60;;;;;;5112544;28;19908;-59
2021/05/13 13:51:43;;;;;;;;;;;614.80;1049.60;;;;;;5115719;28;20006;-59
2021/05/13 13:54:08;;;;;;;;;;;614.70;1049.60;;;;;;5115874;28;19914;-61
2021/05/13 13:56:34;;;;;;;;;;;;;;;;;;5116407;28;19915;-61
2021/05/13 13:59:00;;;;;;;;;;;;;;;;;;5116090;28;20362;-59
2021/05/13 14:01:26;;;;;;;;;;;;;;;;;;5115466;28;19912;-59
2021/05/13 14:03:52;;;;;;;;;;;;;;;;;;5115688;28;20319;-60
2021/05/13 14:06:18;;;;;;;;;;;;;;;;;;5115318;28;20255;-60
2021/05/13 14:08:44;;;;;;;;;;;;;;;;;;5115567;28;20456;-63
2021/05/13 14:11:10;;;;;;;;;;;;;;;;;;5107427;28;20266;-59
2021/05/13 14:13:36;;;;;;;;;;;;;;;;;;5076743;28;19909;-60
2021/05/13 14:16:02;;;;;;;;;;;;;;;;;;5076682;28;19912;-59
2021/05/13 14:18:29;;;;;;;;;;;;;;;;;;5114814;28;20425;-59
2021/05/13 14:20:57;;;;;;;;;;;;;;;;;;5115164;28;19908;-59
2021/05/13 14:23:23;;;;;;;;;;;;;;;;;;5115152;28;20408;-60
2021/05/13 14:25:49;;;;;;;;;;;;;;;;;;5105262;28;19908;-60
2021/05/13 14:28:15;;;;;;;;;;;;;;;;;;5114841;28;19911;-59
2021/05/13 14:30:41;;;;;;;;;;;;;;;;;;5114926;28;19922;-59
2021/05/13 14:33:07;;;;;;;;;;;;;;;;;;5115081;28;19961;-62
2021/05/13 14:35:33;;;;;;;;;;;;;;;;;;5101355;28;19943;-61
2021/05/13 14:37:59;;;;;;;;;;;;;;;;;;5102980;28;20366;-59
2021/05/13 14:40:25;;;;;;;;;;;;;;;;;;5114808;28;19914;-60
2021/05/13 14:42:51;;;;;;;;;;;;;;;;;;5114860;28;19915;-59
2021/05/13 14:45:17;;;;;;;;;;;;;;;;;;5114947;28;19912;-59
2021/05/13 14:47:51;;;;;;;;;;;;;;;;;;5114761;28;19923;-60
2021/05/13 14:50:23;;;;;;;;;;;;;;;;;;5114774;28;19912;-60
2021/05/13 14:52:49;;;;;;;;;;;;;;;;;;5114448;28;19915;-61
2021/05/13 14:55:15;;;;;;;;;;;;;;;;;;5095911;28;19968;-62
2021/05/13 14:57:46;;;;;;;;;;;;;;;;;;5114351;28;20280;-59
2021/05/13 15:00:12;;;;;;;;;;;;;;;;;;5113243;28;19908;-59
2021/05/13 15:02:38;;;;;;;;;;;;;;;;;;5114420;28;20003;-58
2021/05/13 15:05:04;;;;;;;;;;;;;;;;;;5113223;28;19911;-63
2021/05/13 15:07:30;;;;;;;;;;;;;;;;;;5093653;28;19916;-60
2021/05/13 15:09:55;;;;;;;;;;;589.50;1024.00;;;;;;5094186;28;19939;-60
2021/05/13 15:12:21;;;;;;;;;;;589.30;1024.00;;;;;;5105449;28;19938;-59
2021/05/13 15:14:46;;;;;;;;;;;589.30;1024.00;;;;;;5107677;28;19967;-59
2021/05/13 15:17:12;;;;;;;;;;;589.30;1024.00;;;;;;5089132;28;19916;-63
2021/05/13 15:19:37;;;;;;;;;;;589.30;1024.00;;;;;;5088668;28;19954;-60
2021/05/13 15:22:03;;;;;;;;;;;589.20;998.40;;;;;;5089444;28;19941;-64
2021/05/13 15:24:28;;;;;;;;;;;589.10;998.40;;;;;;5091281;28;19953;-60
2021/05/13 15:26:54;;;;;;;;;;;588.90;1024.00;;;;;;5089265;28;19916;-60
2021/05/13 15:29:20;;;;;;;;;;;588.90;1024.00;;;;;;5089614;28;20621;-60
2021/05/13 15:31:45;;;;;;;;;;;589.00;998.40;;;;;;5090773;28;19923;-61
2021/05/13 15:34:11;;;;;;;;;;;588.80;998.40;;;;;;5071350;28;19912;-61
2021/05/13 15:36:36;;;;;;;;;;;589.00;998.40;;;;;;5071298;28;19915;-61
2021/05/13 15:39:03;;;;;;;;;;;588.90;1049.60;;;;;;5110509;28;19949;-59
2021/05/13 15:41:29;;;;;;;;;;;;;;;;;;5113566;28;19908;-61
2021/05/13 15:43:55;;;;;;;;;;;;;;;;;;5113554;28;19914;-60
2021/05/13 15:46:21;;;;;;;;;;;;;;;;;;5113512;28;19920;-62
2021/05/13 15:48:46;;;;;;;;;;;;;;;;;;5095399;28;20395;-62